Time;durP1;ratioP1;P1;durP2;ratioP2;P2;SDS_P1;SDS_P2;PMS_P1;PMS_P2;Temp;Humidity;BMP_temperature;BMP_pressure;BME280_temperature;BME280_humidity;BME280_pressure;Samples;Min_cycle;Max_cycle;Signal;HPM_P1;HPM_P2
2021/01/03 00:01:51;;;;;;;1.97;1.50;;;3.40;68.90;;;;;;5053821;28;20039;-73
2021/01/03 00:04:17;;;;;;;2.30;1.53;;;3.40;68.50;;;;;;5052924;28;20032;-73
2021/01/03 00:06:43;;;;;;;2.30;1.47;;;3.40;68.50;;;;;;5053541;28;20041;-73
2021/01/03 00:09:10;;;;;;;2.73;1.73;;;3.30;68.50;;;;;;5051649;28;20037;-73
2021/01/03 00:11:39;;;;;;;3.23;1.80;;;3.30;68.50;;;;;;5053399;28;20061;-73
2021/01/03 00:14:05;;;;;;;2.83;1.63;;;3.40;69.20;;;;;;5052849;28;20033;-73
2021/01/03 00:16:31;;;;;;;3.47;1.80;;;3.40;69.00;;;;;;5053284;28;20108;-73
2021/01/03 00:18:57;;;;;;;2.93;1.60;;;3.40;68.90;;;;;;5053256;28;20415;-73
2021/01/03 00:21:22;;;;;;;3.23;1.23;;;3.40;68.30;;;;;;5052263;28;20082;-73
2021/01/03 00:23:48;;;;;;;2.80;1.60;;;3.40;68.20;;;;;;5051364;28;20039;-73
2021/01/03 00:26:13;;;;;;;2.57;1.70;;;3.40;68.30;;;;;;5052120;28;20092;-73
2021/01/03 00:28:39;;;;;;;2.43;1.60;;;3.30;68.30;;;;;;5051810;28;20432;-73
2021/01/03 00:31:05;;;;;;;2.63;1.83;;;3.40;68.80;;;;;;5052461;28;20079;-73
2021/01/03 00:33:31;;;;;;;3.13;1.90;;;3.40;68.20;;;;;;5051773;28;20036;-73
2021/01/03 00:35:56;;;;;;;2.10;1.73;;;3.40;68.30;;;;;;5051679;28;20067;-73
2021/01/03 00:38:22;;;;;;;2.97;1.30;;;3.40;68.60;;;;;;5051104;28;20064;-73
2021/01/03 00:40:48;;;;;;;2.80;1.90;;;3.40;68.50;;;;;;5051671;28;20029;-73
2021/01/03 00:43:14;;;;;;;4.63;1.80;;;3.40;68.20;;;;;;5050701;28;20123;-73
2021/01/03 00:45:41;;;;;;;2.30;1.87;;;3.40;68.20;;;;;;5052735;28;20036;-73
2021/01/03 00:48:09;;;;;;;2.10;1.83;;;3.40;68.30;;;;;;5052456;28;20032;-72
2021/01/03 00:50:34;;;;;;;2.17;1.83;;;3.40;68.40;;;;;;5052472;28;20021;-73
2021/01/03 00:53:00;;;;;;;1.93;1.73;;;3.40;68.30;;;;;;5052658;28;20039;-73
2021/01/03 00:55:26;;;;;;;2.90;1.90;;;3.40;68.00;;;;;;5052126;28;20079;-73
2021/01/03 00:57:52;;;;;;;3.43;2.20;;;3.40;68.30;;;;;;5052677;28;20075;-73
2021/01/03 01:00:21;;;;;;;3.23;1.93;;;3.40;68.50;;;;;;5051987;28;20025;-73
2021/01/03 01:02:47;;;;;;;2.27;1.90;;;3.40;68.30;;;;;;5051308;28;20025;-73
2021/01/03 01:05:14;;;;;;;2.80;1.90;;;3.40;68.20;;;;;;5052167;28;20552;-73
2021/01/03 01:07:39;;;;;;;2.90;2.00;;;3.40;68.60;;;;;;5050958;28;20029;-73
2021/01/03 01:10:10;;;;;;;2.63;2.10;;;3.40;68.40;;;;;;5050625;28;20075;-73
2021/01/03 01:12:36;;;;;;;2.73;1.90;;;3.40;69.00;;;;;;5052603;28;20021;-73
2021/01/03 01:15:09;;;;;;;4.17;2.13;;;3.40;69.30;;;;;;5051239;28;20119;-74
2021/01/03 01:17:34;;;;;;;;;;;3.40;69.60;;;;;;5051935;28;20029;-74
2021/01/03 01:20:00;;;;;;;2.70;1.60;;;3.40;69.40;;;;;;5052195;28;19905;-74
2021/01/03 01:22:25;;;;;;;2.33;1.70;;;3.40;69.50;;;;;;5051798;28;20429;-74
2021/01/03 01:24:51;;;;;;;2.60;1.80;;;3.40;68.90;;;;;;5052180;28;20505;-73
2021/01/03 01:27:17;;;;;;;3.07;1.93;;;3.40;68.80;;;;;;5052011;28;20513;-73
2021/01/03 01:29:42;;;;;;;3.57;1.93;;;3.30;68.60;;;;;;5050974;28;20025;-73
2021/01/03 01:32:08;;;;;;;2.63;1.90;;;3.40;68.90;;;;;;5050468;28;20025;-73
2021/01/03 01:34:33;;;;;;;3.27;1.80;;;3.30;69.00;;;;;;5051208;28;20025;-73
2021/01/03 01:36:59;;;;;;;2.83;2.00;;;3.30;69.10;;;;;;5053058;28;20033;-73
2021/01/03 01:39:25;;;;;;;3.37;2.10;;;3.40;69.40;;;;;;5053802;28;20418;-73
2021/01/03 01:41:50;;;;;;;3.40;1.90;;;3.40;69.90;;;;;;5055149;28;20433;-73
2021/01/03 01:44:16;;;;;;;4.60;2.50;;;3.40;69.70;;;;;;5055238;28;20161;-73
2021/01/03 01:47:09;;;;;;;3.93;2.20;;;3.40;69.40;;;;;;5054951;28;20082;-73
2021/01/03 01:49:40;;;;;;;6.93;2.27;;;3.40;69.40;;;;;;5055778;28;20028;-73
2021/01/03 01:52:08;;;;;;;5.50;2.40;;;3.40;69.60;;;;;;5055972;28;20104;-73
2021/01/03 01:54:37;;;;;;;4.07;2.17;;;3.40;69.50;;;;;;5056007;28;20118;-73
2021/01/03 01:57:11;;;;;;;4.13;2.63;;;3.30;69.90;;;;;;5055987;28;20029;-73
2021/01/03 02:00:11;;;;;;;4.27;3.20;;;3.40;70.00;;;;;;5054958;28;20481;-73
2021/01/03 02:02:56;;;;;;;5.30;2.60;;;3.30;70.40;;;;;;5049865;28;20044;-73
2021/01/03 02:05:29;;;;;;;4.83;2.97;;;3.30;71.00;;;;;;5053690;28;20167;-73
2021/01/03 02:08:07;;;;;;;5.57;3.17;;;3.30;71.00;;;;;;5055967;28;20066;-73
2021/01/03 02:10:45;;;;;;;5.97;3.40;;;3.30;71.30;;;;;;5055515;28;20027;-73
2021/01/03 02:13:20;;;;;;;5.93;3.60;;;3.30;71.40;;;;;;5053924;28;20028;-73
2021/01/03 02:15:46;;;;;;;4.80;3.03;;;3.30;71.70;;;;;;5054347;28;20079;-73
2021/01/03 02:18:13;;;;;;;6.00;3.27;;;3.40;71.70;;;;;;5053739;28;20035;-73
2021/01/03 02:20:51;;;;;;;6.57;3.70;;;3.30;71.70;;;;;;5053910;28;20493;-73
2021/01/03 02:23:29;;;;;;;5.07;3.23;;;3.30;71.80;;;;;;5054916;28;20052;-73
2021/01/03 02:25:55;;;;;;;6.27;3.57;;;3.30;72.30;;;;;;5053952;28;20052;-73
2021/01/03 02:28:23;;;;;;;5.93;3.30;;;3.30;72.20;;;;;;5055096;28;20468;-73
2021/01/03 02:30:53;;;;;;;7.53;3.93;;;3.30;72.20;;;;;;5054210;28;20029;-73
2021/01/03 02:33:30;;;;;;;5.00;3.23;;;3.40;72.50;;;;;;5054828;28;20032;-73
2021/01/03 02:36:07;;;;;;;6.23;3.57;;;3.40;73.00;;;;;;5054165;28;20036;-73
2021/01/03 02:38:38;;;;;;;6.03;3.37;;;3.40;72.30;;;;;;5053275;28;20053;-73
2021/01/03 02:41:03;;;;;;;8.77;3.77;;;3.30;72.40;;;;;;5053979;28;20061;-73
2021/01/03 02:43:29;;;;;;;6.13;4.00;;;3.30;72.40;;;;;;5054464;28;20107;-73
2021/01/03 02:45:55;;;;;;;7.40;3.50;;;3.20;72.80;;;;;;5054934;28;20033;-73
2021/01/03 02:48:23;;;;;;;7.23;3.77;;;3.20;73.40;;;;;;5052606;28;20083;-73
2021/01/03 02:50:49;;;;;;;5.07;3.33;;;3.20;72.70;;;;;;5053705;28;20029;-73
2021/01/03 02:53:15;;;;;;;7.30;3.70;;;3.30;72.70;;;;;;5054283;28;20079;-73
2021/01/03 02:55:41;;;;;;;6.30;3.60;;;3.20;72.80;;;;;;5055136;28;20032;-73
2021/01/03 02:58:07;;;;;;;7.70;4.43;;;3.30;72.90;;;;;;5053536;28;20024;-73
2021/01/03 03:00:36;;;;;;;7.23;4.07;;;3.30;72.90;;;;;;5052853;28;20025;-73
2021/01/03 03:03:04;;;;;;;7.37;3.63;;;3.20;73.10;;;;;;5053446;28;20363;-74
2021/01/03 03:05:29;;;;;;;6.13;3.60;;;3.30;73.40;;;;;;5054047;28;20039;-73
2021/01/03 03:07:55;;;;;;;7.20;3.97;;;3.30;73.60;;;;;;5054597;28;20025;-73
2021/01/03 03:10:22;;;;;;;5.63;3.43;;;3.20;73.50;;;;;;5052799;28;20466;-73
2021/01/03 03:12:50;;;;;;;6.07;3.87;;;3.20;74.50;;;;;;5054817;28;20025;-74
2021/01/03 03:15:17;;;;;;;7.27;4.27;;;3.20;74.00;;;;;;5053687;28;20474;-73
2021/01/03 03:17:43;;;;;;;7.97;3.53;;;3.20;74.00;;;;;;5054649;28;20036;-73
2021/01/03 03:20:10;;;;;;;7.73;4.37;;;3.20;74.20;;;;;;5053034;28;20029;-73
2021/01/03 03:22:35;;;;;;;6.60;4.27;;;3.20;74.50;;;;;;5053789;28;20025;-73
2021/01/03 03:25:01;;;;;;;7.00;4.10;;;3.20;75.00;;;;;;5052738;28;20049;-73
2021/01/03 03:27:27;;;;;;;8.73;4.40;;;3.20;75.20;;;;;;5053942;28;20463;-73
2021/01/03 03:29:52;;;;;;;7.83;4.23;;;3.20;75.10;;;;;;5053221;28;20028;-73
2021/01/03 03:32:18;;;;;;;7.93;4.30;;;3.20;75.00;;;;;;5053619;28;20040;-73
2021/01/03 03:34:44;;;;;;;8.47;4.23;;;3.20;75.10;;;;;;5054248;28;20021;-73
2021/01/03 03:37:09;;;;;;;9.00;4.60;;;3.20;75.30;;;;;;5053816;28;20037;-73
2021/01/03 03:39:35;;;;;;;10.87;5.73;;;3.20;75.30;;;;;;5053199;28;20029;-73
2021/01/03 03:42:01;;;;;;;9.70;5.27;;;3.20;75.40;;;;;;5053728;28;20458;-73
2021/01/03 03:44:28;;;;;;;12.27;5.70;;;3.20;75.90;;;;;;5053377;28;20108;-73
2021/01/03 03:47:03;;;;;;;11.13;5.87;;;3.10;75.90;;;;;;5053901;28;20595;-73
2021/01/03 03:49:33;;;;;;;10.80;5.60;;;3.10;76.10;;;;;;5053675;28;20078;-73
2021/01/03 03:52:01;;;;;;;10.87;5.40;;;3.10;76.50;;;;;;5053825;28;20048;-73
2021/01/03 03:54:27;;;;;;;10.13;5.27;;;3.10;76.20;;;;;;5053144;28;20458;-73
2021/01/03 03:56:58;;;;;;;12.37;6.00;;;3.10;76.50;;;;;;5052635;28;20055;-73
2021/01/03 03:59:24;;;;;;;12.70;5.57;;;3.10;76.40;;;;;;5052486;28;20038;-73
2021/01/03 04:01:51;;;;;;;11.03;5.60;;;3.10;76.30;;;;;;5052179;28;20478;-73
2021/01/03 04:04:17;;;;;;;13.33;6.10;;;3.10;76.40;;;;;;5052962;28;20029;-73
2021/01/03 04:06:43;;;;;;;11.47;5.43;;;3.10;76.60;;;;;;5053473;28;20078;-73
2021/01/03 04:09:10;;;;;;;12.50;5.90;;;3.10;76.50;;;;;;5053487;28;20037;-73
2021/01/03 04:11:41;;;;;;;10.67;5.70;;;3.10;76.70;;;;;;5052832;28;20025;-73
2021/01/03 04:14:08;;;;;;;10.13;6.10;;;3.10;76.80;;;;;;5053423;28;20026;-73
2021/01/03 04:16:34;;;;;;;11.10;5.63;;;3.10;76.60;;;;;;5052758;28;20037;-73
2021/01/03 04:18:59;;;;;;;10.50;5.43;;;3.10;76.60;;;;;;5053334;28;20044;-73
2021/01/03 04:21:25;;;;;;;11.07;5.70;;;3.10;76.50;;;;;;5052269;28;20029;-73
2021/01/03 04:23:51;;;;;;;11.37;5.80;;;3.10;76.60;;;;;;5051882;28;20123;-73
2021/01/03 04:26:18;;;;;;;13.83;6.10;;;3.10;76.80;;;;;;5050780;28;20183;-73
2021/01/03 04:28:44;;;;;;;11.83;6.40;;;3.10;77.00;;;;;;5053186;28;20043;-73
2021/01/03 04:31:10;;;;;;;11.17;6.20;;;3.10;77.40;;;;;;5053059;28;20037;-73
2021/01/03 04:33:37;;;;;;;13.03;6.10;;;3.00;77.40;;;;;;5052173;28;20032;-73
2021/01/03 04:36:03;;;;;;;12.30;5.80;;;3.00;77.70;;;;;;5053077;28;20025;-73
2021/01/03 04:38:29;;;;;;;11.97;6.20;;;3.00;78.10;;;;;;5051095;28;20106;-73
2021/01/03 04:40:55;;;;;;;11.40;6.37;;;2.90;78.30;;;;;;5052697;28;20057;-73
2021/01/03 04:43:21;;;;;;;10.83;5.90;;;2.90;78.30;;;;;;5052299;28;20032;-73
2021/01/03 04:45:51;;;;;;;12.90;6.77;;;3.00;79.30;;;;;;5052782;28;20454;-73
2021/01/03 04:48:24;;;;;;;13.43;6.50;;;2.90;78.90;;;;;;5052174;28;20029;-72
2021/01/03 04:50:50;;;;;;;12.97;6.57;;;3.00;79.00;;;;;;5052878;28;20041;-73
2021/01/03 04:53:37;;;;;;;12.57;6.40;;;3.00;78.90;;;;;;5051418;28;20437;-73
2021/01/03 04:56:05;;;;;;;12.20;6.60;;;3.00;79.30;;;;;;5051555;28;20534;-73
2021/01/03 04:58:53;;;;;;;13.60;6.47;;;3.00;79.30;;;;;;5052025;28;20032;-72
2021/01/03 05:01:37;;;;;;;14.77;6.27;;;2.90;80.00;;;;;;5050795;28;20116;-72
2021/01/03 05:04:43;;;;;;;12.00;6.77;;;2.90;80.40;;;;;;5052561;28;20454;-73
2021/01/03 05:07:13;;;;;;;10.90;6.57;;;2.90;81.00;;;;;;5051438;28;20437;-73
2021/01/03 05:09:40;;;;;;;13.47;6.97;;;2.90;81.30;;;;;;5050641;28;20025;-73
2021/01/03 05:12:25;;;;;;;14.73;7.43;;;2.90;81.90;;;;;;5052460;28;20087;-73
2021/01/03 05:15:13;;;;;;;11.00;6.10;;;2.90;82.10;;;;;;5052472;28;20029;-73
2021/01/03 05:17:39;;;;;;;12.83;6.93;;;2.90;82.60;;;;;;5051354;28;20040;-73
2021/01/03 05:20:06;;;;;;;13.23;7.43;;;2.90;82.60;;;;;;5052508;28;20401;-73
2021/01/03 05:22:36;;;;;;;14.23;7.43;;;2.80;82.70;;;;;;5051825;28;20033;-73
2021/01/03 05:25:08;;;;;;;14.23;7.83;;;2.80;83.40;;;;;;5052152;28;20045;-73
2021/01/03 05:27:35;;;;;;;14.03;7.70;;;2.80;83.50;;;;;;5050654;28;20078;-73
2021/01/03 05:30:20;;;;;;;15.83;7.73;;;2.80;83.80;;;;;;5052369;28;20025;-73
2021/01/03 05:32:46;;;;;;;16.20;7.40;;;2.70;84.20;;;;;;5052727;28;20123;-73
2021/01/03 05:35:26;;;;;;;13.53;6.90;;;2.60;84.50;;;;;;5052334;28;20477;-73
2021/01/03 05:37:55;;;;;;;16.23;7.63;;;2.60;84.90;;;;;;5051332;28;20025;-73
2021/01/03 05:40:26;;;;;;;12.67;7.50;;;2.60;85.00;;;;;;5051351;28;20078;-72
2021/01/03 05:43:24;;;;;;;12.70;6.57;;;2.60;85.90;;;;;;5052298;28;20033;-73
2021/01/03 05:46:17;;;;;;;13.93;7.47;;;2.60;85.20;;;;;;5051633;28;20068;-73
2021/01/03 05:48:57;;;;;;;16.00;7.43;;;2.60;85.30;;;;;;5051577;28;20037;-73
2021/01/03 05:51:33;;;;;;;13.50;7.27;;;2.70;85.90;;;;;;5050367;28;20056;-73
2021/01/03 05:54:14;;;;;;;14.50;6.77;;;2.70;85.00;;;;;;5050915;28;20116;-73
2021/01/03 05:56:41;;;;;;;12.83;7.13;;;2.70;85.00;;;;;;5050274;28;20854;-73
2021/01/03 05:59:07;;;;;;;13.97;6.83;;;2.60;85.30;;;;;;5052376;28;20096;-73
2021/01/03 06:01:34;;;;;;;15.23;7.73;;;2.60;85.30;;;;;;5050176;28;20057;-73
2021/01/03 06:04:05;;;;;;;13.10;6.63;;;2.60;85.40;;;;;;5051730;28;20032;-73
2021/01/03 06:06:47;;;;;;;14.53;7.40;;;2.50;85.60;;;;;;5050111;28;20478;-73
2021/01/03 06:09:15;;;;;;;14.17;7.00;;;2.60;85.60;;;;;;5052106;28;20108;-73
2021/01/03 06:11:56;;;;;;;16.27;6.90;;;2.60;85.60;;;;;;5050048;28;20021;-74
2021/01/03 06:14:23;;;;;;;15.07;7.20;;;2.60;85.60;;;;;;5052035;28;20021;-72
2021/01/03 06:16:49;;;;;;;14.13;7.50;;;2.50;85.40;;;;;;5052226;28;20041;-73
2021/01/03 06:19:34;;;;;;;12.67;6.87;;;2.50;85.70;;;;;;5051878;28;20078;-73
2021/01/03 06:22:09;;;;;;;15.03;7.27;;;2.40;86.00;;;;;;5051886;28;20127;-74
2021/01/03 06:24:40;;;;;;;12.07;7.03;;;2.50;86.10;;;;;;5054412;28;20017;-74
2021/01/03 06:27:14;;;;;;;13.27;7.17;;;2.40;86.20;;;;;;5055691;28;20158;-73
2021/01/03 06:29:49;;;;;;;14.30;6.70;;;2.40;86.20;;;;;;5054840;28;20036;-74
2021/01/03 06:32:33;;;;;;;15.17;7.90;;;2.40;86.20;;;;;;5055052;28;20474;-73
2021/01/03 06:34:59;;;;;;;13.23;7.20;;;2.40;86.30;;;;;;5055128;28;20028;-73
2021/01/03 06:37:34;;;;;;;17.50;8.63;;;2.40;86.30;;;;;;5054592;28;20374;-73
2021/01/03 06:40:27;;;;;;;15.83;7.80;;;2.40;86.30;;;;;;5055260;28;20025;-73
2021/01/03 06:43:11;;;;;;;;;;;2.40;86.50;;;;;;5053265;28;20041;-73
2021/01/03 06:45:43;;;;;;;14.43;7.30;;;2.40;86.80;;;;;;5054544;28;19912;-73
2021/01/03 06:48:26;;;;;;;14.50;7.78;;;2.40;86.80;;;;;;5055188;28;20025;-73
2021/01/03 06:51:03;;;;;;;14.53;7.57;;;2.40;86.90;;;;;;5055116;28;20478;-73
2021/01/03 06:53:44;;;;;;;14.57;7.63;;;2.40;87.00;;;;;;5054728;28;20021;-72
2021/01/03 06:56:31;;;;;;;15.23;7.83;;;2.50;86.80;;;;;;5054924;28;20143;-73
2021/01/03 06:59:14;;;;;;;13.33;7.13;;;2.50;86.60;;;;;;5055202;28;20028;-73
2021/01/03 07:01:40;;;;;;;14.93;7.77;;;2.40;86.70;;;;;;5054226;28;20032;-73
2021/01/03 07:04:13;;;;;;;16.10;8.37;;;2.40;86.90;;;;;;5054699;28;20104;-73
2021/01/03 07:06:39;;;;;;;14.63;7.43;;;2.40;86.80;;;;;;5054018;28;20064;-73
2021/01/03 07:09:11;;;;;;;18.73;8.00;;;2.40;86.90;;;;;;5053447;28;20031;-73
2021/01/03 07:11:57;;;;;;;16.27;8.30;;;2.40;86.70;;;;;;5053727;28;20470;-73
2021/01/03 07:14:22;;;;;;;15.00;7.87;;;2.40;86.90;;;;;;5053437;28;20029;-73
2021/01/03 07:16:54;;;;;;;19.73;8.63;;;2.50;86.80;;;;;;5053901;28;20094;-73
2021/01/03 07:19:35;;;;;;;14.93;8.27;;;2.50;86.70;;;;;;5054558;28;20032;-73
2021/01/03 07:22:11;;;;;;;17.03;8.40;;;2.40;87.00;;;;;;5054597;28;20035;-73
2021/01/03 07:24:50;;;;;;;16.67;8.50;;;2.40;87.10;;;;;;5054087;28;20033;-73
2021/01/03 07:27:25;;;;;;;15.97;8.43;;;2.40;87.20;;;;;;5053161;28;20420;-73
2021/01/03 07:30:01;;;;;;;15.60;7.83;;;2.40;87.30;;;;;;5053949;28;20051;-73
2021/01/03 07:32:33;;;;;;;15.93;8.03;;;2.40;87.20;;;;;;5053657;28;20126;-72
2021/01/03 07:35:07;;;;;;;16.83;8.55;;;2.50;87.00;;;;;;5053049;28;20029;-73
2021/01/03 07:37:34;;;;;;;18.73;9.00;;;2.50;87.00;;;;;;5052435;28;20033;-73
2021/01/03 07:40:07;;;;;;;15.60;8.67;;;2.50;87.20;;;;;;5054061;28;20079;-73
2021/01/03 07:42:35;;;;;;;17.00;8.80;;;2.40;87.20;;;;;;5052165;28;20075;-73
2021/01/03 07:45:11;;;;;;;17.37;8.60;;;2.40;87.30;;;;;;5053918;28;20068;-73
2021/01/03 07:47:48;;;;;;;17.83;9.30;;;2.40;87.30;;;;;;5053399;28;20486;-73
2021/01/03 07:50:17;;;;;;;18.37;9.57;;;2.40;87.30;;;;;;5053933;28;20056;-73
2021/01/03 07:52:52;;;;;;;19.40;9.40;;;2.40;87.30;;;;;;5052890;28;20029;-73
2021/01/03 07:55:31;;;;;;;18.30;8.87;;;2.50;87.20;;;;;;5053834;28;20539;-73
2021/01/03 07:58:01;;;;;;;19.17;9.37;;;2.50;87.10;;;;;;5053556;28;20055;-73
2021/01/03 08:00:31;;;;;;;21.10;9.73;;;2.50;87.00;;;;;;5053675;28;20117;-73
2021/01/03 08:03:05;;;;;;;20.20;9.70;;;2.50;87.10;;;;;;5052435;28;20021;-73
2021/01/03 08:05:31;;;;;;;18.33;9.23;;;2.40;87.60;;;;;;5052893;28;20040;-72
2021/01/03 08:08:05;;;;;;;22.10;9.80;;;2.40;87.60;;;;;;5053254;28;20474;-73
2021/01/03 08:10:31;;;;;;;20.07;9.33;;;2.40;87.70;;;;;;5051586;28;20052;-73
2021/01/03 08:13:16;;;;;;;20.33;9.77;;;2.40;87.80;;;;;;5053411;28;20029;-73
2021/01/03 08:15:42;;;;;;;17.43;9.37;;;2.40;87.80;;;;;;5052873;28;20049;-73
2021/01/03 08:18:18;;;;;;;19.03;9.20;;;2.40;87.90;;;;;;5052168;28;20063;-73
2021/01/03 08:20:44;;;;;;;20.27;9.80;;;2.50;88.00;;;;;;5051238;28;20059;-73
2021/01/03 08:23:28;;;;;;;18.93;9.23;;;2.50;87.20;;;;;;5053151;28;20497;-73
2021/01/03 08:26:04;;;;;;;17.73;8.60;;;2.50;87.00;;;;;;5052756;28;20041;-73
2021/01/03 08:28:33;;;;;;;19.50;9.87;;;2.60;87.10;;;;;;5052444;28;20024;-73
2021/01/03 08:31:00;;;;;;;17.77;8.30;;;2.60;87.00;;;;;;5051974;28;20025;-73
2021/01/03 08:33:40;;;;;;;19.10;9.53;;;2.60;86.80;;;;;;5053063;28;20021;-73
2021/01/03 08:36:23;;;;;;;17.30;9.43;;;2.70;86.70;;;;;;5052968;28;20470;-73
2021/01/03 08:38:49;;;;;;;19.00;9.15;;;2.70;86.70;;;;;;5052612;28;20033;-73
2021/01/03 08:41:22;;;;;;;18.53;8.87;;;2.70;86.70;;;;;;5052923;28;20116;-73
2021/01/03 08:43:48;;;;;;;19.53;9.37;;;2.70;86.60;;;;;;5052404;28;20032;-73
2021/01/03 08:46:24;;;;;;;18.70;9.77;;;2.70;86.50;;;;;;5050729;28;20112;-73
2021/01/03 08:49:01;;;;;;;17.00;8.73;;;2.80;86.40;;;;;;5051009;28;20128;-73
2021/01/03 08:51:27;;;;;;;18.67;9.20;;;2.70;86.50;;;;;;5051636;28;20389;-73
2021/01/03 08:54:18;;;;;;;19.93;9.73;;;2.80;86.30;;;;;;5052181;28;20036;-73
2021/01/03 08:56:49;;;;;;;20.47;9.90;;;2.80;86.20;;;;;;5052112;28;20029;-73
2021/01/03 08:59:17;;;;;;;19.45;9.65;;;2.80;86.20;;;;;;5052446;28;20466;-73
2021/01/03 09:01:43;;;;;;;16.27;9.20;;;2.80;86.40;;;;;;5052249;28;20032;-72
2021/01/03 09:04:14;;;;;;;19.10;9.60;;;2.80;86.40;;;;;;5050971;28;20033;-73
2021/01/03 09:06:40;;;;;;;17.07;9.40;;;2.70;86.50;;;;;;5052070;28;20107;-73
2021/01/03 09:09:18;;;;;;;20.60;10.17;;;2.80;86.60;;;;;;5051455;28;20033;-73
2021/01/03 09:12:12;;;;;;;19.80;10.17;;;2.90;86.30;;;;;;5051590;28;20372;-73
2021/01/03 09:14:40;;;;;;;19.83;9.77;;;2.90;86.00;;;;;;5051959;28;20029;-73
2021/01/03 09:17:09;;;;;;;18.80;9.17;;;3.00;85.80;;;;;;5052448;28;20052;-73
2021/01/03 09:19:56;;;;;;;19.93;9.97;;;3.00;85.90;;;;;;5051728;28;20024;-72
2021/01/03 09:22:41;;;;;;;19.90;10.13;;;3.00;85.70;;;;;;5052500;28;20055;-73
2021/01/03 09:25:13;;;;;;;17.67;9.70;;;3.00;85.90;;;;;;5051013;28;20106;-73
2021/01/03 09:27:39;;;;;;;19.45;9.60;;;2.90;85.80;;;;;;5051527;28;20025;-73
2021/01/03 09:30:18;;;;;;;17.50;9.37;;;2.90;86.30;;;;;;5052105;28;20029;-73
2021/01/03 09:32:47;;;;;;;18.87;9.97;;;2.90;86.10;;;;;;5052123;28;20036;-73
2021/01/03 09:35:44;;;;;;;19.60;10.47;;;3.00;86.20;;;;;;5052011;28;20029;-73
2021/01/03 09:38:21;;;;;;;23.90;11.27;;;3.00;86.10;;;;;;5051325;28;20029;-73
2021/01/03 09:41:19;;;;;;;19.90;10.20;;;2.90;86.10;;;;;;5051401;28;20021;-73
2021/01/03 09:44:10;;;;;;;20.20;10.23;;;3.10;86.10;;;;;;5046452;28;20029;-73
2021/01/03 09:47:10;;;;;;;18.73;10.43;;;3.10;85.80;;;;;;5051476;28;20036;-72
2021/01/03 09:49:36;;;;;;;22.33;10.97;;;3.20;85.70;;;;;;5039504;28;20292;-73
2021/01/03 09:52:19;;;;;;;24.03;12.23;;;3.10;85.60;;;;;;5052130;28;20462;-73
2021/01/03 09:55:03;;;;;;;20.20;10.43;;;3.20;85.40;;;;;;5050397;28;20400;-73
2021/01/03 09:57:47;;;;;;;19.83;10.50;;;3.10;85.30;;;;;;5050853;28;20029;-73
2021/01/03 10:00:19;;;;;;;22.67;11.83;;;3.10;85.50;;;;;;5054644;28;20443;-73
2021/01/03 10:02:45;;;;;;;20.70;10.60;;;3.20;85.50;;;;;;5054135;28;20025;-73
2021/01/03 10:05:37;;;;;;;21.80;11.17;;;3.20;85.50;;;;;;5054919;28;20036;-73
2021/01/03 10:08:07;;;;;;;26.73;12.35;;;3.20;85.40;;;;;;5055882;28;20029;-73
2021/01/03 10:10:41;;;;;;;24.77;11.53;;;3.00;85.40;;;;;;5056002;28;20451;-73
2021/01/03 10:13:08;;;;;;;25.07;11.83;;;2.90;86.30;;;;;;5054643;28;20021;-74
2021/01/03 10:15:34;;;;;;;25.43;11.93;;;3.00;86.50;;;;;;5055680;28;20029;-73
2021/01/03 10:18:03;;;;;;;28.43;12.80;;;2.90;86.60;;;;;;5055103;28;20422;-73
2021/01/03 10:20:42;;;;;;;25.83;12.17;;;2.80;86.90;;;;;;5054275;28;20029;-73
2021/01/03 10:23:29;;;;;;;20.00;10.93;;;2.90;86.80;;;;;;5054464;28;20115;-73
2021/01/03 10:25:54;;;;;;;24.37;11.53;;;2.90;86.90;;;;;;5052704;28;20410;-73
2021/01/03 10:28:20;;;;;;;23.90;11.73;;;2.90;86.80;;;;;;5055408;28;20024;-73
2021/01/03 10:30:46;;;;;;;23.60;10.67;;;2.90;86.50;;;;;;5055125;28;20451;-73
2021/01/03 10:33:12;;;;;;;23.13;12.20;;;3.00;87.20;;;;;;5054976;28;20029;-73
2021/01/03 10:35:38;;;;;;;24.27;12.43;;;2.90;86.40;;;;;;5053457;28;20029;-73
2021/01/03 10:38:06;;;;;;;26.00;12.10;;;2.90;86.70;;;;;;5055554;28;20029;-73
2021/01/03 10:40:32;;;;;;;22.97;11.50;;;3.00;86.50;;;;;;5053881;28;20025;-73
2021/01/03 10:42:57;;;;;;;24.73;12.33;;;3.10;86.10;;;;;;5053298;28;20315;-73
2021/01/03 10:45:24;;;;;;;23.90;12.00;;;3.10;85.80;;;;;;5053791;28;20142;-73
2021/01/03 10:47:50;;;;;;;23.03;11.70;;;3.20;85.50;;;;;;5053277;28;20029;-73
2021/01/03 10:50:17;;;;;;;20.80;10.93;;;3.20;85.40;;;;;;5053550;28;20083;-73
2021/01/03 10:52:44;;;;;;;26.37;12.13;;;3.20;85.40;;;;;;5052998;28;20029;-72
2021/01/03 10:55:10;;;;;;;24.47;12.10;;;3.20;85.80;;;;;;5054605;28;20024;-73
2021/01/03 10:57:36;;;;;;;23.97;11.70;;;3.20;86.00;;;;;;5054841;28;20021;-73
2021/01/03 11:00:05;;;;;;;22.70;11.47;;;3.30;85.60;;;;;;5054234;28;20033;-73
2021/01/03 11:02:31;;;;;;;22.50;11.77;;;3.30;85.50;;;;;;5053502;28;20032;-73
2021/01/03 11:04:56;;;;;;;23.43;12.50;;;3.30;85.40;;;;;;5053824;28;20115;-73
2021/01/03 11:07:22;;;;;;;24.63;11.50;;;3.30;85.40;;;;;;5054740;28;20461;-73
2021/01/03 11:09:48;;;;;;;21.37;11.37;;;3.30;84.70;;;;;;5052562;28;20079;-73
2021/01/03 11:12:16;;;;;;;26.40;12.87;;;3.40;84.80;;;;;;5053108;28;20351;-73
2021/01/03 11:14:42;;;;;;;21.37;11.13;;;3.30;85.20;;;;;;5053539;28;20086;-73
2021/01/03 11:17:09;;;;;;;22.20;10.53;;;3.40;85.30;;;;;;5054591;28;20116;-73
2021/01/03 11:19:35;;;;;;;21.10;10.73;;;3.40;85.10;;;;;;5054405;28;20036;-73
2021/01/03 11:22:03;;;;;;;22.90;11.23;;;3.50;84.80;;;;;;5053920;28;20120;-73
2021/01/03 11:24:28;;;;;;;22.77;11.20;;;3.50;84.40;;;;;;5054088;28;20025;-73
2021/01/03 11:26:55;;;;;;;22.27;11.30;;;3.50;84.20;;;;;;5053325;28;20048;-73
2021/01/03 11:29:24;;;;;;;23.83;11.87;;;3.40;84.10;;;;;;5053111;28;20033;-74
2021/01/03 11:31:53;;;;;;;28.63;13.30;;;3.40;85.10;;;;;;5053323;28;20486;-73
2021/01/03 11:34:22;;;;;;;27.77;12.90;;;3.30;85.30;;;;;;5054237;28;20025;-73
2021/01/03 11:36:55;;;;;;;27.73;12.63;;;3.20;86.40;;;;;;5052307;28;20029;-73
2021/01/03 11:39:21;;;;;;;23.37;11.60;;;3.10;86.50;;;;;;5053766;28;20028;-73
2021/01/03 11:41:49;;;;;;;22.83;12.23;;;3.10;86.50;;;;;;5051890;28;20047;-73
2021/01/03 11:44:16;;;;;;;25.67;12.70;;;3.00;86.80;;;;;;5053989;28;20017;-73
2021/01/03 11:46:42;;;;;;;22.57;11.73;;;3.00;87.20;;;;;;5052228;28;20033;-73
2021/01/03 11:49:08;;;;;;;27.50;12.90;;;3.00;87.00;;;;;;5052700;28;20462;-73
2021/01/03 11:51:34;;;;;;;21.63;10.97;;;3.00;87.20;;;;;;5052618;28;20393;-73
2021/01/03 11:54:00;;;;;;;23.13;11.53;;;3.00;86.70;;;;;;5053316;28;20033;-73
2021/01/03 11:56:25;;;;;;;24.50;11.93;;;3.00;86.90;;;;;;5054107;28;20044;-73
2021/01/03 11:58:51;;;;;;;21.90;11.17;;;3.00;86.90;;;;;;5053080;28;20107;-73
2021/01/03 12:01:19;;;;;;;23.63;11.87;;;3.10;87.20;;;;;;5052132;28;20052;-73
2021/01/03 12:03:45;;;;;;;24.03;11.80;;;3.20;87.20;;;;;;5052999;28;20032;-72
2021/01/03 12:06:13;;;;;;;20.83;10.57;;;3.30;86.60;;;;;;5052562;28;20405;-73
2021/01/03 12:08:41;;;;;;;19.80;10.27;;;3.40;85.60;;;;;;5053199;28;20029;-73
2021/01/03 12:11:07;;;;;;;18.87;9.87;;;3.40;85.50;;;;;;5053206;28;20463;-73
2021/01/03 12:13:33;;;;;;;20.70;10.40;;;3.40;85.60;;;;;;5053149;28;20021;-73
2021/01/03 12:15:58;;;;;;;20.70;10.43;;;3.40;85.60;;;;;;5052307;28;20029;-73
2021/01/03 12:18:24;;;;;;;15.97;8.83;;;3.40;85.30;;;;;;5052078;28;20352;-73
2021/01/03 12:20:50;;;;;;;19.13;10.00;;;3.30;85.20;;;;;;5052149;28;20497;-73
2021/01/03 12:23:15;;;;;;;17.57;9.87;;;3.40;85.20;;;;;;5053298;28;20029;-73
2021/01/03 12:25:41;;;;;;;18.97;9.60;;;3.40;84.70;;;;;;5052692;28;20060;-73
2021/01/03 12:28:07;;;;;;;20.40;10.80;;;3.40;85.10;;;;;;5051253;28;20052;-73
2021/01/03 12:30:32;;;;;;;20.80;9.40;;;3.40;85.00;;;;;;5053087;28;20078;-73
2021/01/03 12:32:58;;;;;;;21.97;10.17;;;3.50;85.40;;;;;;5052492;28;20425;-73
2021/01/03 12:35:23;;;;;;;19.53;10.20;;;3.50;84.90;;;;;;5053270;28;20036;-73
2021/01/03 12:37:49;;;;;;;21.53;10.70;;;3.60;84.30;;;;;;5051144;28;20029;-72
2021/01/03 12:40:15;;;;;;;20.30;10.03;;;3.50;84.10;;;;;;5051741;28;20462;-73
2021/01/03 12:42:41;;;;;;;19.27;9.60;;;3.40;84.20;;;;;;5051338;28;20033;-73
2021/01/03 12:45:09;;;;;;;20.47;10.13;;;3.50;83.90;;;;;;5051949;28;20147;-73
2021/01/03 12:47:35;;;;;;;19.23;9.97;;;3.50;84.10;;;;;;5052846;28;20082;-73
2021/01/03 12:50:01;;;;;;;18.33;9.27;;;3.50;84.40;;;;;;5052072;28;20096;-73
2021/01/03 12:52:26;;;;;;;20.90;10.27;;;3.50;84.40;;;;;;5052489;28;20033;-73
2021/01/03 12:54:52;;;;;;;19.17;10.07;;;3.50;84.90;;;;;;5051838;28;20526;-72
2021/01/03 12:57:18;;;;;;;18.03;9.90;;;3.60;84.80;;;;;;5052825;28;20025;-73
2021/01/03 12:59:44;;;;;;;19.23;9.90;;;3.60;84.00;;;;;;5052727;28;20035;-73
2021/01/03 13:02:09;;;;;;;20.27;9.90;;;3.60;83.80;;;;;;5050904;28;20025;-73
2021/01/03 13:04:35;;;;;;;20.60;9.57;;;3.60;84.10;;;;;;5052296;28;20426;-73
2021/01/03 13:07:01;;;;;;;20.63;10.10;;;3.50;84.70;;;;;;5050651;28;20029;-73